Time;durP1;ratioP1;P1;durP2;ratioP2;P2;SDS_P1;SDS_P2;PMS_P1;PMS_P2;Temp;Humidity;BMP_temperature;BMP_pressure;BME280_temperature;BME280_humidity;BME280_pressure;Samples;Min_cycle;Max_cycle;Signal;HPM_P1;HPM_P2
2022/11/21 00:01:19;;;;;;;;;8.25;1.75;;;;;;;;5079317;28;45166;-78
2022/11/21 00:03:44;;;;;;;;;2.00;2.00;;;;;;;;5082610;27;45480;-74
2022/11/21 00:06:10;;;;;;;;;6.25;2.75;;;;;;;;5080299;27;45600;-77
2022/11/21 00:08:35;;;;;;;;;4.25;3.50;;;;;;;;5083230;27;45597;-77
2022/11/21 00:11:00;;;;;;;;;7.50;2.00;;;;;;;;5092091;27;45507;-77
2022/11/21 00:13:25;;;;;;;;;6.75;4.00;;;;;;;;5090140;27;45490;-77
2022/11/21 00:15:50;;;;;;;;;5.25;3.00;;;;;;;;5080249;27;45370;-76
2022/11/21 00:18:16;;;;;;;;;6.75;3.00;;;;;;;;5087664;27;45658;-77
2022/11/21 00:20:41;;;;;;;;;4.75;2.75;;;;;;;;5080070;28;45457;-77
2022/11/21 00:23:07;;;;;;;;;5.75;2.50;;;;;;;;5082608;27;46010;-77
2022/11/21 00:25:32;;;;;;;;;4.25;2.00;;;;;;;;5081571;27;45401;-77
2022/11/21 00:27:57;;;;;;;;;4.50;2.25;;;;;;;;5083939;27;45347;-77
2022/11/21 00:30:22;;;;;;;;;6.25;2.50;;;;;;;;5081258;27;45267;-76
2022/11/21 00:32:48;;;;;;;;;3.00;2.00;;;;;;;;5080258;27;45176;-77
2022/11/21 00:35:13;;;;;;;;;4.50;3.25;;;;;;;;5084258;27;45344;-77
2022/11/21 00:37:38;;;;;;;;;1.25;1.00;;;;;;;;5079945;27;46465;-77
2022/11/21 00:40:03;;;;;;;;;4.75;2.00;;;;;;;;5091833;27;45291;-76
2022/11/21 00:42:29;;;;;;;;;4.25;3.00;;;;;;;;5099578;27;45587;-77
2022/11/21 00:44:54;;;;;;;;;4.00;2.00;;;;;;;;5084540;27;45448;-76
2022/11/21 00:47:19;;;;;;;;;4.00;3.00;;;;;;;;5079607;27;45280;-76
2022/11/21 00:49:44;;;;;;;;;6.00;2.00;;;;;;;;5087307;27;45219;-77
2022/11/21 00:52:09;;;;;;;;;6.50;3.75;;;;;;;;5079816;27;45324;-77
2022/11/21 00:54:34;;;;;;;;;4.00;2.75;;;;;;;;5086773;27;45576;-76
2022/11/21 00:57:00;;;;;;;;;2.75;2.75;;;;;;;;5087340;27;45390;-77
2022/11/21 00:59:25;;;;;;;;;2.50;2.00;;;;;;;;5081456;27;45461;-77
2022/11/21 01:01:50;;;;;;;;;2.25;2.00;;;;;;;;5081759;27;45985;-77
2022/11/21 01:04:15;;;;;;;;;5.75;1.50;;;;;;;;5084022;27;45448;-77
2022/11/21 01:06:40;;;;;;;;;5.00;4.00;;;;;;;;5079006;27;45520;-77
2022/11/21 01:09:06;;;;;;;;;9.50;3.00;;;;;;;;5081267;27;45687;-77
2022/11/21 01:11:31;;;;;;;;;2.00;2.00;;;;;;;;5079173;27;45216;-77
2022/11/21 01:13:56;;;;;;;;;5.00;3.25;;;;;;;;5080750;27;45347;-77
2022/11/21 01:16:23;;;;;;;;;4.00;2.00;;;;;;;;5079165;27;45402;-77
2022/11/21 01:18:48;;;;;;;;;7.25;2.75;;;;;;;;5080795;27;45371;-77
2022/11/21 01:21:15;;;;;;;;;2.00;1.75;;;;;;;;5079384;28;45405;-77
2022/11/21 01:23:40;;;;;;;;;2.50;2.50;;;;;;;;5081689;27;45485;-77
2022/11/21 01:26:10;;;;;;;;;1.75;1.75;;;;;;;;5078947;27;45716;-77
2022/11/21 01:28:35;;;;;;;;;5.50;2.50;;;;;;;;5078885;27;45370;-77
2022/11/21 01:31:11;;;;;;;;;4.00;2.25;;;;;;;;5079097;27;45265;-77
2022/11/21 01:33:36;;;;;;;;;3.00;2.00;;;;;;;;5081727;27;45179;-77
2022/11/21 01:36:12;;;;;;;;;3.75;2.75;;;;;;;;5083719;27;46066;-77
2022/11/21 01:38:38;;;;;;;;;4.00;2.00;;;;;;;;5081238;27;45291;-77
2022/11/21 01:41:03;;;;;;;;;3.00;3.00;;;;;;;;5079000;27;45438;-77
2022/11/21 01:43:28;;;;;;;;;4.25;1.25;;;;;;;;5083117;27;45306;-77
2022/11/21 01:45:55;;;;;;;;;3.50;1.75;;;;;;;;5082163;27;45458;-77
2022/11/21 01:48:30;;;;;;;;;4.00;3.00;;;;;;;;5088650;27;45386;-77
2022/11/21 01:50:58;;;;;;;;;3.00;3.00;;;;;;;;5086268;27;45270;-77
2022/11/21 01:53:23;;;;;;;;;4.75;1.00;;;;;;;;5099199;27;45559;-77
2022/11/21 01:55:49;;;;;;;;;5.00;2.00;;;;;;;;5093299;27;45296;-77
2022/11/21 01:58:14;;;;;;;;;5.50;2.75;;;;;;;;5089180;27;45457;-77
2022/11/21 02:00:43;;;;;;;;;5.00;2.50;;;;;;;;5088458;27;45264;-77
2022/11/21 02:03:12;;;;;;;;;2.00;1.00;;;;;;;;5084807;27;45379;-77
2022/11/21 02:05:39;;;;;;;;;9.50;3.00;;;;;;;;5081920;27;45655;-77
2022/11/21 02:08:08;;;;;;;;;4.25;1.75;;;;;;;;5084870;27;45332;-77
2022/11/21 02:10:35;;;;;;;;;8.50;4.00;;;;;;;;5082058;27;45414;-77
2022/11/21 02:13:01;;;;;;;;;3.25;2.00;;;;;;;;5082538;27;45317;-77
2022/11/21 02:15:27;;;;;;;;;2.50;2.00;;;;;;;;5081846;27;45529;-77
2022/11/21 02:17:52;;;;;;;;;3.25;2.00;;;;;;;;5082238;27;45477;-77
2022/11/21 02:20:19;;;;;;;;;1.00;1.00;;;;;;;;5081962;27;45433;-77
2022/11/21 02:22:50;;;;;;;;;6.00;1.75;;;;;;;;5082148;27;45212;-77
2022/11/21 02:25:25;;;;;;;;;4.00;3.00;;;;;;;;5086909;27;45425;-77
2022/11/21 02:27:52;;;;;;;;;4.00;3.00;;;;;;;;5081570;27;45493;-77
2022/11/21 02:30:18;;;;;;;;;2.50;2.25;;;;;;;;5090628;27;45373;-77
2022/11/21 02:32:46;;;;;;;;;3.25;3.25;;;;;;;;5081943;27;45292;-77
2022/11/21 02:35:12;;;;;;;;;3.00;3.00;;;;;;;;5086110;27;45654;-77
2022/11/21 02:37:37;;;;;;;;;0.25;0.25;;;;;;;;5083331;27;45306;-77
2022/11/21 02:40:06;;;;;;;;;2.00;2.00;;;;;;;;5083859;27;45341;-77
2022/11/21 02:42:31;;;;;;;;;5.00;2.00;;;;;;;;5081050;27;45472;-77
2022/11/21 02:45:19;;;;;;;;;5.25;4.50;;;;;;;;5083772;27;46107;-77
2022/11/21 02:47:45;;;;;;;;;2.00;2.00;;;;;;;;5081808;27;45512;-77
2022/11/21 02:50:13;;;;;;;;;4.25;3.00;;;;;;;;5083832;27;45215;-77
2022/11/21 02:52:39;;;;;;;;;4.00;4.00;;;;;;;;5081620;27;45559;-77
2022/11/21 02:55:04;;;;;;;;;7.50;4.00;;;;;;;;5083003;27;45345;-77
2022/11/21 02:57:29;;;;;;;;;7.00;3.00;;;;;;;;5086496;27;45355;-77
2022/11/21 02:59:55;;;;;;;;;7.75;5.00;;;;;;;;5092453;27;45457;-77
2022/11/21 03:02:20;;;;;;;;;4.50;3.25;;;;;;;;5080032;27;45960;-77
2022/11/21 03:04:45;;;;;;;;;3.50;2.00;;;;;;;;5083626;27;45821;-77
2022/11/21 03:07:10;;;;;;;;;4.50;4.00;;;;;;;;5081189;27;45331;-76
2022/11/21 03:09:36;;;;;;;;;7.00;3.00;;;;;;;;5083842;27;45346;-77
2022/11/21 03:12:07;;;;;;;;;6.25;3.50;;;;;;;;5080849;27;45273;-77
2022/11/21 03:14:35;;;;;;;;;5.25;5.25;;;;;;;;5083294;27;46676;-77
2022/11/21 03:17:01;;;;;;;;;8.00;3.00;;;;;;;;5089617;27;45333;-77
2022/11/21 03:19:26;;;;;;;;;7.50;4.00;;;;;;;;5083448;27;45286;-77
2022/11/21 03:21:51;;;;;;;;;7.25;3.75;;;;;;;;5081024;27;45380;-77
2022/11/21 03:24:17;;;;;;;;;6.75;4.75;;;;;;;;5086383;27;45509;-77
2022/11/21 03:26:42;;;;;;;;;5.00;4.00;;;;;;;;5080449;27;45343;-77
2022/11/21 03:29:07;;;;;;;;;7.75;4.50;;;;;;;;5086620;27;45474;-77
2022/11/21 03:31:32;;;;;;;;;5.00;3.00;;;;;;;;5081621;27;45700;-77
2022/11/21 03:33:57;;;;;;;;;5.25;5.25;;;;;;;;5089314;27;47811;-77
2022/11/21 03:36:23;;;;;;;;;3.00;3.00;;;;;;;;5081972;27;45270;-77
2022/11/21 03:38:48;;;;;;;;;5.00;3.50;;;;;;;;5085674;27;45438;-77
2022/11/21 03:41:28;;;;;;;;;4.50;4.25;;;;;;;;5080349;27;45523;-77
2022/11/21 03:44:14;;;;;;;;;5.25;4.50;;;;;;;;5083744;27;47301;-77
2022/11/21 03:46:40;;;;;;;;;8.75;3.00;;;;;;;;5085865;27;45383;-77
2022/11/21 03:49:05;;;;;;;;;2.50;2.00;;;;;;;;5090342;27;45307;-77
2022/11/21 03:51:31;;;;;;;;;6.50;3.00;;;;;;;;5084905;27;45323;-77
2022/11/21 03:53:56;;;;;;;;;4.00;3.00;;;;;;;;5082667;27;45323;-77
2022/11/21 03:56:22;;;;;;;;;5.00;3.00;;;;;;;;5082421;27;45311;-77
2022/11/21 03:58:47;;;;;;;;;8.75;3.50;;;;;;;;5090932;27;45439;-77
2022/11/21 04:01:12;;;;;;;;;3.75;3.00;;;;;;;;5087723;27;45258;-77
2022/11/21 04:03:38;;;;;;;;;9.75;7.25;;;;;;;;5080239;27;45500;-77
2022/11/21 04:06:03;;;;;;;;;5.50;4.75;;;;;;;;5089151;27;45315;-77
2022/11/21 04:08:28;;;;;;;;;4.25;3.75;;;;;;;;5094283;27;45279;-77
2022/11/21 04:10:54;;;;;;;;;4.50;3.00;;;;;;;;5090542;27;45362;-77
2022/11/21 04:13:19;;;;;;;;;10.00;4.00;;;;;;;;5087338;27;46529;-77
2022/11/21 04:15:45;;;;;;;;;9.00;6.75;;;;;;;;5085554;27;45216;-77
2022/11/21 04:18:10;;;;;;;;;3.75;1.75;;;;;;;;5080376;27;45247;-77
2022/11/21 04:20:36;;;;;;;;;5.25;3.00;;;;;;;;5084644;27;45214;-77
2022/11/21 04:23:01;;;;;;;;;8.00;2.75;;;;;;;;5091378;27;47068;-77
2022/11/21 04:25:26;;;;;;;;;4.50;4.00;;;;;;;;5086453;27;45608;-77
2022/11/21 04:27:54;;;;;;;;;4.50;4.00;;;;;;;;5079787;27;45331;-77
2022/11/21 04:30:20;;;;;;;;;4.75;3.75;;;;;;;;5087829;27;45514;-77
2022/11/21 04:32:46;;;;;;;;;8.75;2.75;;;;;;;;5079645;27;45453;-77
2022/11/21 04:35:11;;;;;;;;;7.00;4.00;;;;;;;;5083237;27;45412;-77
2022/11/21 04:37:38;;;;;;;;;10.25;4.00;;;;;;;;5079907;27;45277;-77
2022/11/21 04:40:03;;;;;;;;;5.50;5.25;;;;;;;;5080642;27;45467;-77
2022/11/21 04:42:28;;;;;;;;;5.75;3.50;;;;;;;;5079183;27;46290;-77
2022/11/21 04:44:53;;;;;;;;;8.50;5.25;;;;;;;;5081211;27;45211;-77
2022/11/21 04:47:19;;;;;;;;;4.00;3.00;;;;;;;;5085896;27;45355;-77
2022/11/21 04:49:44;;;;;;;;;5.00;4.50;;;;;;;;5080791;27;45429;-77
2022/11/21 04:52:10;;;;;;;;;10.25;5.50;;;;;;;;5087016;27;47243;-77
2022/11/21 04:54:36;;;;;;;;;8.00;7.25;;;;;;;;5079144;27;45611;-77
2022/11/21 04:57:01;;;;;;;;;8.50;5.25;;;;;;;;5092606;27;45393;-77
2022/11/21 04:59:26;;;;;;;;;8.00;3.25;;;;;;;;5093140;27;45445;-77
2022/11/21 05:01:51;;;;;;;;;4.25;4.25;;;;;;;;5085585;27;45199;-77
2022/11/21 05:04:16;;;;;;;;;4.00;4.00;;;;;;;;5086282;27;45369;-77
2022/11/21 05:06:42;;;;;;;;;7.25;4.50;;;;;;;;5085075;27;45345;-77
2022/11/21 05:09:07;;;;;;;;;9.00;5.25;;;;;;;;5080091;27;45276;-77
2022/11/21 05:14:16;;;;;;;;;8.00;4.25;;;;;;;;5094132;27;45296;-77
2022/11/21 05:16:41;;;;;;;;;6.50;6.00;;;;;;;;5081036;27;45539;-76
2022/11/21 05:19:07;;;;;;;;;7.00;5.50;;;;;;;;5079127;27;45227;-77
2022/11/21 05:21:32;;;;;;;;;6.50;4.25;;;;;;;;5081279;27;45396;-77
2022/11/21 05:23:58;;;;;;;;;6.50;4.50;;;;;;;;5079212;27;45136;-77
2022/11/21 05:26:23;;;;;;;;;9.00;7.00;;;;;;;;5081594;27;45207;-76
2022/11/21 05:28:48;;;;;;;;;9.00;4.25;;;;;;;;5079107;27;45129;-77
2022/11/21 05:31:13;;;;;;;;;8.25;6.50;;;;;;;;5080226;27;45316;-77
2022/11/21 05:33:39;;;;;;;;;7.00;5.75;;;;;;;;5079580;27;45249;-77
2022/11/21 05:36:04;;;;;;;;;10.00;6.00;;;;;;;;5089871;27;44800;-77
2022/11/21 05:38:29;;;;;;;;;7.00;5.25;;;;;;;;5078793;27;45609;-76
2022/11/21 05:40:54;;;;;;;;;9.00;5.25;;;;;;;;5083607;27;45453;-77
2022/11/21 05:46:03;;;;;;;;;10.25;7.75;;;;;;;;5083147;27;45331;-77
2022/11/21 05:48:28;;;;;;;;;7.50;7.50;;;;;;;;5078679;28;45432;-76
2022/11/21 05:50:54;;;;;;;;;8.25;6.75;;;;;;;;5083285;27;45442;-76
2022/11/21 05:53:19;;;;;;;;;14.00;8.50;;;;;;;;5078649;27;45412;-77
2022/11/21 05:55:44;;;;;;;;;9.75;7.75;;;;;;;;5079472;27;45266;-77
2022/11/21 05:58:10;;;;;;;;;7.75;5.00;;;;;;;;5078975;27;45394;-76
2022/11/21 06:00:36;;;;;;;;;3.75;3.75;;;;;;;;5080251;27;45485;-77
2022/11/21 06:05:45;;;;;;;;;13.00;8.50;;;;;;;;5081248;27;46599;-77
2022/11/21 06:08:10;;;;;;;;;8.75;6.25;;;;;;;;5078606;27;45447;-77
2022/11/21 06:10:35;;;;;;;;;11.00;8.00;;;;;;;;5080898;27;45320;-77
2022/11/21 06:13:01;;;;;;;;;7.00;7.00;;;;;;;;5081156;27;45295;-77
2022/11/21 06:15:26;;;;;;;;;10.00;7.50;;;;;;;;5078056;27;44768;-77
2022/11/21 06:17:51;;;;;;;;;7.25;6.00;;;;;;;;5091065;27;45505;-76
2022/11/21 06:20:17;;;;;;;;;16.25;10.50;;;;;;;;5064330;28;48253;-76
2022/11/21 06:22:42;;;;;;;;;11.50;10.00;;;;;;;;5078752;28;45368;-76
2022/11/21 06:25:07;;;;;;;;;13.25;8.25;;;;;;;;5082493;27;45391;-76
2022/11/21 06:27:32;;;;;;;;;14.50;10.00;;;;;;;;5079428;27;45438;-77
2022/11/21 06:29:58;;;;;;;;;11.25;8.00;;;;;;;;5081040;27;46035;-77
2022/11/21 06:32:23;;;;;;;;;10.00;8.00;;;;;;;;5085537;27;45339;-78
2022/11/21 06:34:48;;;;;;;;;10.75;7.50;;;;;;;;5097415;27;45232;-77
2022/11/21 06:37:13;;;;;;;;;14.00;9.00;;;;;;;;5085604;27;45484;-77
2022/11/21 06:39:38;;;;;;;;;11.75;9.25;;;;;;;;5083752;27;45483;-77
2022/11/21 06:42:04;;;;;;;;;11.25;10.50;;;;;;;;5086000;27;45182;-77
2022/11/21 06:44:29;;;;;;;;;10.25;8.00;;;;;;;;5082644;27;45218;-77
2022/11/21 06:46:54;;;;;;;;;20.00;14.75;;;;;;;;5088131;27;45401;-77
2022/11/21 06:49:21;;;;;;;;;14.25;10.25;;;;;;;;5081647;27;45618;-77
2022/11/21 06:51:46;;;;;;;;;10.75;8.50;;;;;;;;5087857;27;45327;-76
2022/11/21 06:54:11;;;;;;;;;10.75;8.50;;;;;;;;5090362;27;45469;-76
2022/11/21 06:56:36;;;;;;;;;18.75;10.00;;;;;;;;5090545;27;46205;-77
2022/11/21 06:59:02;;;;;;;;;16.25;10.25;;;;;;;;5084647;27;44963;-77
2022/11/21 07:01:27;;;;;;;;;13.75;11.25;;;;;;;;5086156;27;45389;-76
2022/11/21 07:03:52;;;;;;;;;24.75;12.25;;;;;;;;5081413;27;45278;-76
2022/11/21 07:06:17;;;;;;;;;13.75;9.25;;;;;;;;5088988;27;45414;-76
2022/11/21 07:08:43;;;;;;;;;12.00;10.00;;;;;;;;5081249;27;46273;-76
2022/11/21 07:11:09;;;;;;;;;14.75;11.75;;;;;;;;5083263;27;45225;-77
2022/11/21 07:13:34;;;;;;;;;9.50;9.00;;;;;;;;5080841;27;45324;-76
2022/11/21 07:16:01;;;;;;;;;13.25;10.25;;;;;;;;5083399;27;45296;-76
2022/11/21 07:18:26;;;;;;;;;12.25;10.00;;;;;;;;5080950;27;45324;-75
2022/11/21 07:20:51;;;;;;;;;12.75;10.00;;;;;;;;5084023;27;45368;-77
2022/11/21 07:23:16;;;;;;;;;14.25;9.50;;;;;;;;5081165;27;45374;-76
2022/11/21 07:25:43;;;;;;;;;15.25;13.50;;;;;;;;5086888;27;45546;-76
2022/11/21 07:28:08;;;;;;;;;10.00;10.00;;;;;;;;5080330;27;45362;-77
2022/11/21 07:30:34;;;;;;;;;13.25;10.00;;;;;;;;5086114;27;45422;-76
2022/11/21 07:33:00;;;;;;;;;14.00;9.25;;;;;;;;5087332;27;45476;-76
2022/11/21 07:35:25;;;;;;;;;9.50;9.00;;;;;;;;5094581;27;45169;-76
2022/11/21 07:37:51;;;;;;;;;16.75;11.25;;;;;;;;5087759;27;45406;-75
2022/11/21 07:40:16;;;;;;;;;10.50;10.00;;;;;;;;5083356;27;45243;-76
2022/11/21 07:42:42;;;;;;;;;10.00;8.75;;;;;;;;5083976;27;45534;-76
2022/11/21 07:45:07;;;;;;;;;18.75;13.50;;;;;;;;5082940;27;45449;-76
2022/11/21 07:47:32;;;;;;;;;19.25;13.50;;;;;;;;5083758;27;48223;-77
2022/11/21 07:49:57;;;;;;;;;22.25;14.50;;;;;;;;5083138;27;45436;-77
2022/11/21 07:52:24;;;;;;;;;18.50;14.50;;;;;;;;5086089;27;45320;-76
2022/11/21 07:54:49;;;;;;;;;14.00;10.75;;;;;;;;5082780;27;45434;-77
2022/11/21 07:57:14;;;;;;;;;14.00;14.00;;;;;;;;5089444;27;46123;-76
2022/11/21 07:59:39;;;;;;;;;22.75;19.00;;;;;;;;5084383;27;45282;-77
2022/11/21 08:02:04;;;;;;;;;18.50;15.00;;;;;;;;5085183;27;45364;-77
2022/11/21 08:04:30;;;;;;;;;17.50;12.75;;;;;;;;5092717;27;45303;-77
2022/11/21 08:06:55;;;;;;;;;18.25;17.50;;;;;;;;5080563;27;46289;-77
2022/11/21 08:09:20;;;;;;;;;20.75;15.25;;;;;;;;5083545;27;44688;-77
2022/11/21 08:11:45;;;;;;;;;18.25;11.50;;;;;;;;5084860;27;45646;-76
2022/11/21 08:14:11;;;;;;;;;21.50;15.25;;;;;;;;5080356;27;45485;-76
2022/11/21 08:16:36;;;;;;;;;22.00;17.50;;;;;;;;5082281;27;46480;-77
2022/11/21 08:19:01;;;;;;;;;19.00;17.00;;;;;;;;5080393;27;45329;-76
2022/11/21 08:21:26;;;;;;;;;23.75;18.00;;;;;;;;5082669;27;45449;-76
2022/11/21 08:23:52;;;;;;;;;17.75;14.50;;;;;;;;5083977;27;45462;-77
2022/11/21 08:26:17;;;;;;;;;19.75;15.50;;;;;;;;5084874;27;45430;-77
2022/11/21 08:28:42;;;;;;;;;20.75;16.50;;;;;;;;5079734;27;45301;-77
2022/11/21 08:31:08;;;;;;;;;14.00;10.75;;;;;;;;5089375;27;45779;-76
2022/11/21 08:33:33;;;;;;;;;19.00;14.25;;;;;;;;5080165;28;45291;-76
2022/11/21 08:36:02;;;;;;;;;21.00;15.75;;;;;;;;5083224;27;46040;-76
2022/11/21 08:38:27;;;;;;;;;37.25;32.25;;;;;;;;5080113;27;44713;-77
2022/11/21 08:42:01;;;;;;;;;17.00;17.00;;;;;;;;5088375;27;45485;-76
2022/11/21 08:43:37;;;;;;;;;18.25;15.75;;;;;;;;5079554;27;45466;-76
2022/11/21 08:46:03;;;;;;;;;17.50;17.50;;;;;;;;5084370;27;45428;-76
2022/11/21 08:48:28;;;;;;;;;19.50;17.50;;;;;;;;5081419;27;45343;-76
2022/11/21 08:50:55;;;;;;;;;26.00;18.00;;;;;;;;5084171;27;45135;-75
2022/11/21 08:53:20;;;;;;;;;23.75;20.00;;;;;;;;5087333;27;46776;-75
2022/11/21 08:55:46;;;;;;;;;22.25;19.00;;;;;;;;5081809;27;45584;-76
2022/11/21 08:58:11;;;;;;;;;20.75;18.00;;;;;;;;5089598;27;45421;-76
2022/11/21 09:00:36;;;;;;;;;23.75;18.25;;;;;;;;5082094;27;45391;-76
2022/11/21 09:03:04;;;;;;;;;21.75;20.50;;;;;;;;5079520;28;45444;-76
2022/11/21 09:05:30;;;;;;;;;21.50;16.25;;;;;;;;5081675;27;45338;-76
2022/11/21 09:07:56;;;;;;;;;18.50;18.00;;;;;;;;5079487;27;45251;-76
2022/11/21 09:10:21;;;;;;;;;28.25;20.00;;;;;;;;5084926;27;45484;-77
2022/11/21 09:12:46;;;;;;;;;8.50;8.25;;;;;;;;5088909;27;46090;-76
2022/11/21 09:18:06;;;;;;;;;22.25;20.00;;;;;;;;5079442;27;45472;-77
2022/11/21 09:20:35;;;;;;;;;26.25;19.00;;;;;;;;5084223;27;45434;-75
2022/11/21 09:23:04;;;;;;;;;20.75;16.25;;;;;;;;5079221;27;45276;-76
2022/11/21 09:25:29;;;;;;;;;20.75;15.25;;;;;;;;5093385;27;47265;-76
2022/11/21 09:27:57;;;;;;;;;15.50;14.50;;;;;;;;5079272;27;45383;-76
2022/11/21 09:30:23;;;;;;;;;18.50;14.50;;;;;;;;5083559;27;45496;-76
2022/11/21 09:32:48;;;;;;;;;21.25;16.50;;;;;;;;5079082;27;45429;-77
2022/11/21 09:35:13;;;;;;;;;16.25;15.00;;;;;;;;5088112;27;45361;-76
2022/11/21 09:37:39;;;;;;;;;25.50;16.25;;;;;;;;5079450;27;45208;-76
2022/11/21 09:40:04;;;;;;;;;20.75;17.75;;;;;;;;5086192;27;45296;-76
2022/11/21 09:42:39;;;;;;;;;22.75;15.25;;;;;;;;5087249;27;45357;-76
2022/11/21 09:45:09;;;;;;;;;15.25;13.50;;;;;;;;5081359;27;45542;-76
2022/11/21 09:47:36;;;;;;;;;10.25;10.25;;;;;;;;5077778;27;45517;-76
2022/11/21 09:50:04;;;;;;;;;19.00;16.00;;;;;;;;5081124;27;45263;-77
2022/11/21 09:52:38;;;;;;;;;24.00;19.25;;;;;;;;5079951;27;45230;-77
2022/11/21 09:55:16;;;;;;;;;18.75;14.50;;;;;;;;5081177;27;46833;-77
2022/11/21 09:57:43;;;;;;;;;15.75;13.50;;;;;;;;5087990;27;45378;-78
2022/11/21 10:00:14;;;;;;;;;23.00;18.25;;;;;;;;5086159;27;45440;-77
2022/11/21 10:02:39;;;;;;;;;9.00;5.00;;;;;;;;5085038;27;45392;-76
2022/11/21 10:05:11;;;;;;;;;20.50;15.00;;;;;;;;5084874;27;46010;-76
2022/11/21 10:07:36;;;;;;;;;19.75;15.00;;;;;;;;5081965;27;45153;-77
2022/11/21 10:10:20;;;;;;;;;17.25;13.50;;;;;;;;5084151;27;45364;-77
2022/11/21 10:12:51;;;;;;;;;13.75;13.75;;;;;;;;5081761;27;45208;-77
2022/11/21 10:15:37;;;;;;;;;20.00;13.50;;;;;;;;5084440;27;46688;-77
2022/11/21 10:18:23;;;;;;;;;11.75;11.00;;;;;;;;5081554;27;45334;-77
2022/11/21 10:20:48;;;;;;;;;14.50;11.50;;;;;;;;5082310;27;45304;-77
2022/11/21 10:23:32;;;;;;;;;15.00;12.75;;;;;;;;5081749;27;45289;-77
2022/11/21 10:26:18;;;;;;;;;15.50;12.50;;;;;;;;5084391;27;45803;-76
2022/11/21 10:28:50;;;;;;;;;12.25;9.50;;;;;;;;5085400;27;45281;-76
2022/11/21 10:31:16;;;;;;;;;14.50;11.00;;;;;;;;5091426;27;45414;-76
2022/11/21 10:33:41;;;;;;;;;14.00;11.25;;;;;;;;5083266;27;45545;-76
2022/11/21 10:36:06;;;;;;;;;16.00;14.00;;;;;;;;5087330;27;45341;-76
2022/11/21 10:38:37;;;;;;;;;15.75;13.00;;;;;;;;5091632;27;45366;-77
2022/11/21 10:41:11;;;;;;;;;15.75;13.75;;;;;;;;5093094;27;45223;-77
2022/11/21 10:46:38;;;;;;;;;21.25;13.75;;;;;;;;5088163;27;45361;-77
2022/11/21 10:49:06;;;;;;;;;10.25;10.00;;;;;;;;5081560;27;45299;-76
2022/11/21 10:51:35;;;;;;;;;13.50;12.00;;;;;;;;5087300;27;45180;-76
2022/11/21 10:56:52;;;;;;;;;15.50;11.25;;;;;;;;5089352;27;45488;-77
2022/11/21 10:59:25;;;;;;;;;11.00;7.00;;;;;;;;5081192;27;45279;-76
2022/11/21 11:02:01;;;;;;;;;10.50;8.25;;;;;;;;5083564;27;45460;-77
2022/11/21 11:04:30;;;;;;;;;12.00;10.00;;;;;;;;5081519;27;45234;-76
2022/11/21 11:06:55;;;;;;;;;9.25;9.00;;;;;;;;5085529;27;45343;-76
2022/11/21 11:09:26;;;;;;;;;11.00;10.00;;;;;;;;5081585;27;45362;-76
2022/11/21 11:11:52;;;;;;;;;8.75;8.00;;;;;;;;5082097;27;45189;-78
2022/11/21 11:14:26;;;;;;;;;12.50;10.50;;;;;;;;5081465;27;45220;-76
2022/11/21 11:16:51;;;;;;;;;8.00;8.00;;;;;;;;5094293;27;45914;-76
2022/11/21 11:19:19;;;;;;;;;8.25;6.00;;;;;;;;5084534;27;45204;-75
2022/11/21 11:21:45;;;;;;;;;12.75;6.50;;;;;;;;5088405;27;45343;-75
2022/11/21 11:24:10;;;;;;;;;9.75;6.25;;;;;;;;5080726;27;45602;-76
2022/11/21 11:26:55;;;;;;;;;8.50;6.25;;;;;;;;5080523;27;45430;-76
2022/11/21 11:29:21;;;;;;;;;8.50;5.50;;;;;;;;5083136;27;45320;-76
2022/11/21 11:31:53;;;;;;;;;12.25;11.00;;;;;;;;5092607;27;45441;-75
2022/11/21 11:34:18;;;;;;;;;11.25;10.50;;;;;;;;5080700;27;45485;-76
2022/11/21 11:36:49;;;;;;;;;7.50;7.50;;;;;;;;5083365;27;46383;-76
2022/11/21 11:39:33;;;;;;;;;11.50;9.00;;;;;;;;5080484;27;45287;-78
2022/11/21 11:47:58;;;;;;;;;8.00;7.50;;;;;;;;5080538;27;45334;-77
2022/11/21 11:50:31;;;;;;;;;7.00;5.25;;;;;;;;5081141;27;45448;-77
2022/11/21 11:52:56;;;;;;;;;9.00;7.75;;;;;;;;5089722;27;45495;-77
2022/11/21 11:55:28;;;;;;;;;15.00;11.00;;;;;;;;5088480;27;46779;-76
2022/11/21 11:57:55;;;;;;;;;9.50;4.50;;;;;;;;5092819;27;46438;-78
2022/11/21 12:00:39;;;;;;;;;9.75;5.50;;;;;;;;5087340;27;45326;-79
2022/11/21 12:03:13;;;;;;;;;7.00;5.00;;;;;;;;5080424;27;45461;-79
2022/11/21 12:05:42;;;;;;;;;6.25;5.00;;;;;;;;5085093;27;45419;-76
2022/11/21 12:08:20;;;;;;;;;8.50;6.00;;;;;;;;5080117;27;45429;-77
2022/11/21 12:13:47;;;;;;;;;4.50;4.50;;;;;;;;5080174;27;45557;-77
2022/11/21 12:16:13;;;;;;;;;8.00;4.00;;;;;;;;5082098;27;45433;-77
2022/11/21 12:18:54;;;;;;;;;9.25;4.50;;;;;;;;5079846;27;45353;-77
2022/11/21 12:21:19;;;;;;;;;11.25;8.00;;;;;;;;5082036;27;45411;-77
2022/11/21 12:23:47;;;;;;;;;10.00;9.00;;;;;;;;5082637;27;45292;-77
2022/11/21 12:26:12;;;;;;;;;8.25;5.50;;;;;;;;5082478;27;45493;-76
2022/11/21 12:28:40;;;;;;;;;11.50;8.00;;;;;;;;5079687;27;45977;-77
2022/11/21 12:31:26;;;;;;;;;11.25;5.50;;;;;;;;5084748;27;45277;-78
2022/11/21 12:33:57;;;;;;;;;10.50;9.00;;;;;;;;5083140;27;45402;-77
2022/11/21 12:36:31;;;;;;;;;8.75;6.50;;;;;;;;5081717;27;45297;-79
2022/11/21 12:38:59;;;;;;;;;9.25;7.50;;;;;;;;5092451;27;45411;-79
2022/11/21 12:44:24;;;;;;;;;7.25;6.75;;;;;;;;5079651;27;45353;-78
2022/11/21 12:46:49;;;;;;;;;10.75;10.00;;;;;;;;5087239;27;45441;-78
2022/11/21 12:55:21;;;;;;;;;9.00;8.50;;;;;;;;5082044;27;45429;-78
2022/11/21 12:57:58;;;;;;;;;12.50;8.75;;;;;;;;5083604;27;45410;-78
2022/11/21 13:00:26;;;;;;;;;3.50;0.00;;;;;;;;5085119;27;46216;-77
2022/11/21 13:03:11;;;;;;;;;10.00;5.00;;;;;;;;5078192;27;45286;-78
2022/11/21 13:05:39;;;;;;;;;13.25;8.25;;;;;;;;5082039;27;45374;-79
2022/11/21 13:08:10;;;;;;;;;7.25;4.75;;;;;;;;5079797;28;45433;-77
2022/11/21 13:10:36;;;;;;;;;9.50;7.50;;;;;;;;5088158;27;45357;-76
2022/11/21 13:13:01;;;;;;;;;7.25;4.50;;;;;;;;5088062;27;45345;-76
2022/11/21 13:15:28;;;;;;;;;12.50;5.25;;;;;;;;5087786;27;45297;-77
2022/11/21 13:17:56;;;;;;;;;6.25;5.75;;;;;;;;5079642;27;45404;-77
2022/11/21 13:20:27;;;;;;;;;9.00;8.50;;;;;;;;5079252;27;45442;-78
2022/11/21 13:22:54;;;;;;;;;7.50;5.00;;;;;;;;5079585;27;45260;-76
2022/11/21 13:25:31;;;;;;;;;7.00;4.75;;;;;;;;5085437;27;45428;-78
2022/11/21 13:28:17;;;;;;;;;6.25;3.75;;;;;;;;5080135;27;45338;-78
2022/11/21 13:30:49;;;;;;;;;8.25;4.25;;;;;;;;5067919;27;45495;-78
2022/11/21 13:33:38;;;;;;;;;8.50;8.00;;;;;;;;5079329;28;45292;-76
2022/11/21 13:36:10;;;;;;;;;8.00;4.50;;;;;;;;5077366;27;45445;-78
2022/11/21 13:38:54;;;;;;;;;1.50;1.50;;;;;;;;5088095;27;45266;-79
2022/11/21 13:44:28;;;;;;;;;10.50;7.75;;;;;;;;5093141;27;45177;-78
2022/11/21 13:47:28;;;;;;;;;12.25;10.00;;;;;;;;5083061;27;45383;-81
2022/11/21 13:50:02;;;;;;;;;21.00;17.00;;;;;;;;5084786;27;44754;-80
2022/11/21 13:52:27;;;;;;;;;1.50;0.50;;;;;;;;5090587;27;45256;-80
2022/11/21 13:55:11;;;;;;;;;27.75;22.25;;;;;;;;5082298;27;45417;-80
2022/11/21 13:57:45;;;;;;;;;8.25;5.00;;;;;;;;5087710;27;45314;-77
2022/11/21 14:00:13;;;;;;;;;9.00;7.50;;;;;;;;5082703;27;45322;-80
2022/11/21 14:02:44;;;;;;;;;16.00;11.75;;;;;;;;5079573;27;45307;-78
2022/11/21 14:05:32;;;;;;;;;16.75;13.25;;;;;;;;5078814;27;44745;-78
2022/11/21 14:08:16;;;;;;;;;7.00;5.00;;;;;;;;5084393;27;44775;-79
2022/11/21 14:10:41;;;;;;;;;11.50;8.00;;;;;;;;5081354;27;45672;-80
2022/11/21 14:13:16;;;;;;;;;3.75;3.00;;;;;;;;5079710;27;47030;-78
2022/11/21 14:16:00;;;;;;;;;2.00;2.00;;;;;;;;5081566;27;45428;-79
2022/11/21 14:18:25;;;;;;;;;4.00;3.25;;;;;;;;5077668;28;45474;-78
2022/11/21 14:20:52;;;;;;;;;8.00;4.00;;;;;;;;5082696;27;45369;-80
2022/11/21 14:23:21;;;;;;;;;5.75;2.50;;;;;;;;5083137;27;46058;-82
2022/11/21 14:25:48;;;;;;;;;4.00;4.00;;;;;;;;5083661;27;46628;-78
2022/11/21 14:28:19;;;;;;;;;6.50;3.00;;;;;;;;5079161;27;45279;-78
2022/11/21 14:30:44;;;;;;;;;4.00;3.50;;;;;;;;5084851;27;45469;-79
2022/11/21 14:33:26;;;;;;;;;5.00;3.50;;;;;;;;5079522;27;45516;-80
2022/11/21 14:35:59;;;;;;;;;6.50;3.75;;;;;;;;5089854;27;45515;-78
2022/11/21 14:38:26;;;;;;;;;2.00;2.00;;;;;;;;5088759;27;45253;-78
2022/11/21 14:41:11;;;;;;;;;5.75;3.75;;;;;;;;5087873;27;45287;-81
2022/11/21 14:43:36;;;;;;;;;3.75;3.00;;;;;;;;5095368;27;45626;-82
2022/11/21 14:46:02;;;;;;;;;3.00;3.00;;;;;;;;5080485;27;45311;-81
2022/11/21 14:48:28;;;;;;;;;2.50;2.00;;;;;;;;5078311;27;45594;-82
2022/11/21 14:50:54;;;;;;;;;4.50;3.00;;;;;;;;5087136;27;45385;-82
2022/11/21 14:53:20;;;;;;;;;5.00;2.75;;;;;;;;5081620;27;45322;-78
2022/11/21 14:55:48;;;;;;;;;3.00;2.00;;;;;;;;5084461;27;45394;-79
2022/11/21 14:58:15;;;;;;;;;3.50;3.00;;;;;;;;5093120;27;45298;-80
2022/11/21 15:00:40;;;;;;;;;5.00;3.50;;;;;;;;5084683;27;45623;-78
2022/11/21 15:03:16;;;;;;;;;8.50;5.50;;;;;;;;5081761;28;46564;-83
2022/11/21 15:05:41;;;;;;;;;4.50;3.00;;;;;;;;5086178;27;45391;-80
2022/11/21 15:08:08;;;;;;;;;3.50;2.25;;;;;;;;5084615;27;45312;-82
2022/11/21 15:10:33;;;;;;;;;5.50;5.50;;;;;;;;5086208;27;45293;-78
2022/11/21 15:12:59;;;;;;;;;5.75;4.50;;;;;;;;5085730;27;45445;-81
2022/11/21 15:15:35;;;;;;;;;5.00;5.00;;;;;;;;5084027;27;44701;-79